createdAt,value
2019-02-22T00:02:10.321Z,86.87
2019-02-22T00:04:39.102Z,80.20
2019-02-22T00:07:07.958Z,68.83
2019-02-22T00:09:37.136Z,77.82
2019-02-22T00:12:06.005Z,77.80
2019-02-22T00:14:35.170Z,66.53
2019-02-22T00:17:03.961Z,64.53
2019-02-22T00:19:32.863Z,56.40
2019-02-22T00:22:01.962Z,51.92
2019-02-22T00:24:30.759Z,52.15
2019-02-22T00:26:59.591Z,49.10
2019-02-22T00:29:28.735Z,47.90
2019-02-22T00:31:58.130Z,45.63
2019-02-22T00:34:27.347Z,41.35
2019-02-22T00:36:56.174Z,40.73
2019-02-22T00:39:25.457Z,46.70
2019-02-22T00:41:54.875Z,38.05
2019-02-22T00:44:23.681Z,33.33
2019-02-22T00:46:52.447Z,36.45
2019-02-22T00:49:21.223Z,34.90
2019-02-22T00:51:50.080Z,27.25
2019-02-22T00:54:18.854Z,26.60
2019-02-22T00:56:47.728Z,25.70
2019-02-22T00:59:16.555Z,26.15
2019-02-22T01:01:45.448Z,26.77
2019-02-22T01:04:14.627Z,28.85
2019-02-22T01:06:43.495Z,26.02
2019-02-22T01:09:12.440Z,25.80
2019-02-22T01:11:41.247Z,25.82
2019-02-22T01:14:10.022Z,27.77
2019-02-22T01:16:39.278Z,26.23
2019-02-22T01:19:08.113Z,27.20
2019-02-22T01:21:36.875Z,26.57
2019-02-22T01:24:05.652Z,26.05
2019-02-22T01:26:34.559Z,25.10
2019-02-22T01:29:03.471Z,26.30
2019-02-22T01:31:32.989Z,25.08
2019-02-22T01:34:02.152Z,26.85
2019-02-22T01:36:30.937Z,24.23
2019-02-22T01:38:59.714Z,27.27
2019-02-22T01:41:28.796Z,28.45
2019-02-22T01:43:57.570Z,24.37
2019-02-22T01:46:26.405Z,24.72
2019-02-22T01:48:55.270Z,26.52
2019-02-22T01:51:24.254Z,23.15
2019-02-22T01:53:54.107Z,21.73
2019-02-22T01:56:22.990Z,23.95
2019-02-22T01:58:51.791Z,21.48
2019-02-22T02:01:20.561Z,25.23
2019-02-22T02:03:49.347Z,23.62
2019-02-22T02:06:18.406Z,27.35
2019-02-22T02:08:47.196Z,24.05
2019-02-22T02:11:15.974Z,25.52
2019-02-22T02:13:44.765Z,30.48
2019-02-22T02:16:13.529Z,27.32
2019-02-22T02:18:42.329Z,26.62
2019-02-22T02:21:11.124Z,27.48
2019-02-22T02:23:39.940Z,28.47
2019-02-22T02:26:09.541Z,27.48
2019-02-22T02:28:39.139Z,28.85
2019-02-22T02:31:07.927Z,29.52
2019-02-22T02:33:37.414Z,29.67
2019-02-22T02:36:06.370Z,27.55
2019-02-22T02:38:35.237Z,29.77
2019-02-22T02:41:08.438Z,32.17
2019-02-22T02:43:35.192Z,26.00
2019-02-22T02:46:03.984Z,25.65
2019-02-22T02:48:33.146Z,26.85
2019-02-22T02:51:02.614Z,24.12
2019-02-22T02:53:31.381Z,31.85
2019-02-22T02:56:00.702Z,27.48
2019-02-22T02:58:29.509Z,32.80
2019-02-22T03:00:58.314Z,29.95
2019-02-22T03:03:27.871Z,30.43
2019-02-22T03:06:34.239Z,31.23
2019-02-22T03:09:04.930Z,32.08
2019-02-22T03:11:34.713Z,35.20
2019-02-22T03:14:04.593Z,34.60
2019-02-22T03:16:34.511Z,33.67
2019-02-22T03:19:04.601Z,38.95
2019-02-22T03:21:33.401Z,37.75
2019-02-22T03:24:02.816Z,37.58
2019-02-22T03:26:31.649Z,35.92
2019-02-22T03:29:00.513Z,37.80
2019-02-22T03:31:30.220Z,37.05
2019-02-22T03:33:59.654Z,39.92
2019-02-22T03:36:28.771Z,39.42
2019-02-22T03:38:57.556Z,42.55
2019-02-22T03:41:32.755Z,41.60
2019-02-22T03:43:58.072Z,38.75
2019-02-22T03:46:26.828Z,38.13
2019-02-22T03:48:56.010Z,41.10
2019-02-22T03:51:25.604Z,38.78
2019-02-22T03:54:00.324Z,37.95
2019-02-22T03:56:30.302Z,42.00
2019-02-22T03:59:00.307Z,42.03
2019-02-22T04:01:29.655Z,40.50
2019-02-22T04:03:59.683Z,40.17
2019-02-22T04:06:28.756Z,39.92
2019-02-22T04:08:57.842Z,38.38
2019-02-22T04:11:27.448Z,39.38
2019-02-22T04:13:56.759Z,38.90
2019-02-22T04:16:25.935Z,38.65
2019-02-22T04:18:55.282Z,38.80
2019-02-22T04:21:24.119Z,40.80
2019-02-22T04:23:53.326Z,42.90
2019-02-22T04:26:23.852Z,37.78
2019-02-22T04:28:55.121Z,37.73
2019-02-22T04:31:24.920Z,35.90
2019-02-22T04:33:54.085Z,38.08
2019-02-22T04:36:23.289Z,41.23
2019-02-22T04:38:52.270Z,38.23
2019-02-22T04:41:21.304Z,41.02
2019-02-22T04:43:50.444Z,41.90
2019-02-22T04:46:19.305Z,42.85
2019-02-22T04:48:49.102Z,45.00
2019-02-22T04:51:18.652Z,42.20
2019-02-22T04:53:48.524Z,45.48
2019-02-22T04:56:18.408Z,43.48
2019-02-22T04:58:47.885Z,39.20
2019-02-22T05:01:17.356Z,41.48
2019-02-22T05:03:46.504Z,45.17
2019-02-22T05:06:15.696Z,45.55
2019-02-22T05:08:44.845Z,46.92
2019-02-22T05:11:13.606Z,46.50
2019-02-22T05:13:42.794Z,41.37
2019-02-22T05:16:12.645Z,49.75
2019-02-22T05:18:42.346Z,50.40
2019-02-22T05:21:11.997Z,41.18
2019-02-22T05:23:42.294Z,42.10
2019-02-22T05:26:12.135Z,49.23
2019-02-22T05:28:41.968Z,44.93
2019-02-22T05:31:11.502Z,48.52
2019-02-22T05:33:40.654Z,47.80
2019-02-22T05:36:09.782Z,48.87
2019-02-22T05:38:38.549Z,51.50
2019-02-22T05:41:07.309Z,49.30
2019-02-22T05:43:36.139Z,49.20
2019-02-22T05:46:05.613Z,42.98
2019-02-22T05:48:34.695Z,46.85
2019-02-22T05:51:04.242Z,47.25
2019-02-22T05:53:33.983Z,46.28
2019-02-22T05:56:03.568Z,50.88
2019-02-22T05:58:32.341Z,50.40
2019-02-22T06:01:01.923Z,47.88
2019-02-22T06:03:31.039Z,51.37
2019-02-22T06:05:59.874Z,53.58
2019-02-22T06:08:28.653Z,54.33
2019-02-22T06:10:57.437Z,48.98
2019-02-22T06:13:26.228Z,49.73
2019-02-22T06:15:55.031Z,48.50
2019-02-22T06:18:24.205Z,51.92
2019-02-22T06:20:52.978Z,52.30
2019-02-22T06:23:23.411Z,52.98
2019-02-22T06:25:55.572Z,46.08
2019-02-22T06:28:24.837Z,52.03
2019-02-22T06:30:54.008Z,51.42
2019-02-22T06:33:22.761Z,48.78
2019-02-22T06:35:52.539Z,47.83
2019-02-22T06:38:21.401Z,52.00
2019-02-22T06:40:50.205Z,45.92
2019-02-22T06:43:19.320Z,47.08
2019-02-22T06:45:48.724Z,46.35
2019-02-22T06:48:17.581Z,48.15
2019-02-22T06:50:46.348Z,55.63
2019-02-22T06:53:15.258Z,45.67
2019-02-22T06:55:44.410Z,42.25
2019-02-22T06:58:13.606Z,44.83
2019-02-22T07:00:42.370Z,50.20
2019-02-22T07:03:11.202Z,55.45
2019-02-22T07:05:39.979Z,50.08
2019-02-22T07:08:08.819Z,46.63
2019-02-22T07:10:55.512Z,47.83
2019-02-22T07:13:36.421Z,50.08
2019-02-22T07:16:05.587Z,45.28
2019-02-22T07:18:34.377Z,49.40
2019-02-22T07:21:03.256Z,45.95
2019-02-22T07:23:32.045Z,57.95
2019-02-22T07:26:00.937Z,52.43
2019-02-22T07:28:29.750Z,47.35
2019-02-22T07:30:58.528Z,54.65
2019-02-22T07:33:27.355Z,53.05
2019-02-22T07:35:56.170Z,56.48
2019-02-22T07:38:25.273Z,65.62
2019-02-22T07:40:54.068Z,66.42
2019-02-22T07:43:22.875Z,64.62
2019-02-22T07:45:51.656Z,60.33
2019-02-22T07:48:20.431Z,61.68
2019-02-22T07:50:57.441Z,73.42
2019-02-22T07:53:19.756Z,54.65
2019-02-22T07:55:48.540Z,67.70
2019-02-22T07:58:17.349Z,70.78
2019-02-22T08:00:46.234Z,71.42
2019-02-22T08:03:15.010Z,72.30
2019-02-22T08:05:44.187Z,64.35
2019-02-22T08:08:12.988Z,75.32
2019-02-22T08:10:41.802Z,66.00
2019-02-22T08:13:19.244Z,67.87
2019-02-22T08:15:41.191Z,67.78
2019-02-22T08:18:10.019Z,67.53
2019-02-22T08:20:38.813Z,67.12
2019-02-22T08:23:07.586Z,61.00
2019-02-22T08:25:40.236Z,68.97
2019-02-22T08:28:09.083Z,67.80
2019-02-22T08:30:37.975Z,74.00
2019-02-22T08:33:06.905Z,71.22
2019-02-22T08:35:35.677Z,68.83
2019-02-22T08:38:04.644Z,71.33
2019-02-22T08:40:33.441Z,80.85
2019-02-22T08:43:02.244Z,72.58
2019-02-22T08:45:31.038Z,63.87
2019-02-22T08:47:59.827Z,71.72
2019-02-22T08:50:28.594Z,70.22
2019-02-22T08:52:57.391Z,69.92
2019-02-22T08:55:26.528Z,66.62
2019-02-22T08:57:55.308Z,65.87
2019-02-22T09:00:24.173Z,65.28
2019-02-22T09:02:53.775Z,67.20
2019-02-22T09:05:22.561Z,60.78
2019-02-22T09:07:51.332Z,54.90
2019-02-22T09:10:20.139Z,49.75
2019-02-22T09:12:48.951Z,44.45
2019-02-22T09:15:17.803Z,46.25
2019-02-22T09:17:46.602Z,37.50
2019-02-22T09:20:15.436Z,31.65
2019-02-22T09:22:44.204Z,38.60
2019-02-22T09:25:13.077Z,34.67
2019-02-22T09:27:41.952Z,27.02
2019-02-22T09:30:11.366Z,33.65
2019-02-22T09:32:40.181Z,34.23
2019-02-22T09:35:10.421Z,32.10
2019-02-22T09:37:39.739Z,31.42
2019-02-22T09:40:09.961Z,30.32
2019-02-22T09:42:38.749Z,26.42
2019-02-22T09:45:08.855Z,33.08
2019-02-22T09:47:37.740Z,27.42
2019-02-22T09:50:08.274Z,32.33
2019-02-22T09:52:37.207Z,26.15
2019-02-22T09:55:07.622Z,21.17
2019-02-22T09:57:36.494Z,22.85
2019-02-22T10:00:07.299Z,20.80
2019-02-22T10:02:36.168Z,21.17
2019-02-22T10:05:05.318Z,23.50
2019-02-22T10:07:34.130Z,22.87
2019-02-22T10:10:02.994Z,20.65
2019-02-22T10:12:31.769Z,26.17
2019-02-22T10:15:00.551Z,18.90
2019-02-22T10:17:29.352Z,21.70
2019-02-22T10:19:58.155Z,25.02
2019-02-22T10:22:26.994Z,18.82
2019-02-22T10:24:55.823Z,23.00
2019-02-22T10:27:24.668Z,17.17
2019-02-22T10:29:53.482Z,17.25
2019-02-22T10:32:22.254Z,21.40
2019-02-22T10:34:51.058Z,19.50
2019-02-22T10:37:19.915Z,16.95
2019-02-22T10:39:48.991Z,16.65
2019-02-22T10:42:17.867Z,16.90
2019-02-22T10:44:46.720Z,15.53
2019-02-22T10:47:15.508Z,14.95
2019-02-22T10:49:44.306Z,14.07
2019-02-22T10:52:13.070Z,16.50
2019-02-22T10:54:41.876Z,16.55
2019-02-22T10:57:10.649Z,16.97
2019-02-22T10:59:39.442Z,19.50
2019-02-22T11:02:08.515Z,15.63
2019-02-22T11:04:37.389Z,12.20
2019-02-22T11:07:06.298Z,13.90
2019-02-22T11:09:35.186Z,17.60
2019-02-22T11:12:04.045Z,19.20
2019-02-22T11:14:32.857Z,13.45
2019-02-22T11:17:01.639Z,16.20
2019-02-22T11:19:38.320Z,13.60
2019-02-22T11:22:16.336Z,13.85
2019-02-22T11:24:54.328Z,12.23
2019-02-22T11:27:23.588Z,12.63
2019-02-22T11:29:52.408Z,9.65
2019-02-22T11:32:21.588Z,14.60
2019-02-22T11:34:50.363Z,11.73
2019-02-22T11:37:19.150Z,12.45
2019-02-22T11:39:47.936Z,12.28
2019-02-22T11:42:16.745Z,14.07
2019-02-22T11:44:45.553Z,14.28
2019-02-22T11:47:14.399Z,14.28
2019-02-22T11:49:43.189Z,14.85
2019-02-22T11:52:12.076Z,15.85
2019-02-22T11:54:40.846Z,14.30
2019-02-22T11:57:10.378Z,18.85
2019-02-22T11:59:39.244Z,16.60
2019-02-22T12:02:08.096Z,15.58
2019-02-22T12:04:36.904Z,11.93
2019-02-22T12:07:05.808Z,11.10
2019-02-22T12:09:35.037Z,12.15
2019-02-22T12:12:03.851Z,11.60
2019-02-22T12:14:33.097Z,10.40
2019-02-22T12:17:04.854Z,12.25
2019-02-22T12:19:33.663Z,11.43
2019-02-22T12:22:02.434Z,9.78
2019-02-22T12:24:31.221Z,11.35
2019-02-22T12:27:00.069Z,11.63
2019-02-22T12:29:29.022Z,13.58
2019-02-22T12:31:57.832Z,9.75
2019-02-22T12:34:26.616Z,13.30
2019-02-22T12:36:55.409Z,8.30
2019-02-22T12:39:24.289Z,7.97
2019-02-22T12:41:53.759Z,8.65
2019-02-22T12:44:22.698Z,10.65
2019-02-22T12:46:51.525Z,9.95
2019-02-22T12:49:20.325Z,9.98
2019-02-22T12:51:49.254Z,11.65
2019-02-22T12:54:18.025Z,14.23
2019-02-22T12:56:57.571Z,15.32
2019-02-22T12:59:17.784Z,10.48
2019-02-22T13:01:46.580Z,13.53
2019-02-22T13:04:15.387Z,10.90
2019-02-22T13:06:44.157Z,11.93
2019-02-22T13:09:13.005Z,16.37
2019-02-22T13:11:41.797Z,14.80
2019-02-22T13:14:10.571Z,10.50
2019-02-22T13:16:39.696Z,10.75
2019-02-22T13:19:08.467Z,12.33
2019-02-22T13:21:37.238Z,14.38
2019-02-22T13:24:06.102Z,14.60
2019-02-22T13:26:34.963Z,11.80
2019-02-22T13:29:04.969Z,12.98
2019-02-22T13:31:33.993Z,12.45
2019-02-22T13:34:02.859Z,15.85
2019-02-22T13:36:31.798Z,11.50
2019-02-22T13:39:00.635Z,11.03
2019-02-22T13:41:29.500Z,15.35
2019-02-22T13:43:58.332Z,13.88
2019-02-22T13:46:28.894Z,14.55
2019-02-22T13:48:57.887Z,16.23
2019-02-22T13:51:27.073Z,13.65
2019-02-22T13:53:55.874Z,15.03
2019-02-22T13:56:29.659Z,20.40
2019-02-22T13:58:55.128Z,14.73
2019-02-22T14:01:24.407Z,14.58
2019-02-22T14:03:53.176Z,15.93
2019-02-22T14:06:22.289Z,17.82
2019-02-22T14:08:51.117Z,17.17
2019-02-22T14:11:19.892Z,18.10
2019-02-22T14:13:48.761Z,18.52
2019-02-22T14:16:17.565Z,15.45
2019-02-22T14:18:46.355Z,17.05
2019-02-22T14:21:15.145Z,12.80
2019-02-22T14:23:43.955Z,16.23
2019-02-22T14:26:12.910Z,18.32
2019-02-22T14:28:41.690Z,17.30
2019-02-22T14:31:10.479Z,11.95
2019-02-22T14:33:39.247Z,16.00
2019-02-22T14:36:08.161Z,11.25
2019-02-22T14:38:37.134Z,14.43
2019-02-22T14:41:05.895Z,15.20
2019-02-22T14:43:34.754Z,15.13
2019-02-22T14:46:03.575Z,15.30
2019-02-22T14:48:32.350Z,20.70
2019-02-22T14:51:01.181Z,21.15
2019-02-22T14:53:29.952Z,18.07
2019-02-22T14:55:59.871Z,19.17
2019-02-22T14:58:28.806Z,20.45
2019-02-22T15:00:57.651Z,21.07
2019-02-22T15:03:26.458Z,20.68
2019-02-22T15:05:55.262Z,21.80
2019-02-22T15:08:24.108Z,22.15
2019-02-22T15:10:52.900Z,20.30
2019-02-22T15:13:21.670Z,22.17
2019-02-22T15:16:24.852Z,23.18
2019-02-22T15:18:53.681Z,22.93
2019-02-22T15:21:22.446Z,20.45
2019-02-22T15:23:51.226Z,22.55
2019-02-22T15:26:20.026Z,21.35
2019-02-22T15:28:48.805Z,26.42
2019-02-22T15:31:17.575Z,20.97
2019-02-22T15:33:46.384Z,23.32
2019-02-22T15:36:16.082Z,20.30
2019-02-22T15:38:45.066Z,20.82
2019-02-22T15:41:13.862Z,20.15
2019-02-22T15:43:42.666Z,20.65
2019-02-22T15:46:12.483Z,19.45
2019-02-22T15:48:41.450Z,22.13
2019-02-22T15:51:10.213Z,28.30
2019-02-22T15:53:39.029Z,24.50
2019-02-22T15:56:07.805Z,21.77
2019-02-22T15:58:36.568Z,22.17
2019-02-22T16:01:05.646Z,24.55
2019-02-22T16:03:57.836Z,23.27
2019-02-22T16:06:26.820Z,25.10
2019-02-22T16:08:55.733Z,25.75
2019-02-22T16:11:24.730Z,29.07
2019-02-22T16:13:53.610Z,33.10
2019-02-22T16:16:23.477Z,25.20
2019-02-22T16:18:52.438Z,30.57
2019-02-22T16:21:21.490Z,32.40
2019-02-22T16:23:50.258Z,30.75
2019-02-22T16:26:22.437Z,29.87
2019-02-22T16:28:51.240Z,31.20
2019-02-22T16:31:20.046Z,27.40
2019-02-22T16:33:48.936Z,28.83
2019-02-22T16:36:17.792Z,33.10
2019-02-22T16:38:46.547Z,35.13
2019-02-22T16:41:15.378Z,34.35
2019-02-22T16:43:44.173Z,31.37
2019-02-22T16:46:12.973Z,31.57
2019-02-22T16:48:41.809Z,33.10
2019-02-22T16:51:10.624Z,31.00
2019-02-22T16:53:39.388Z,31.73
2019-02-22T16:56:08.239Z,29.52
2019-02-22T16:58:37.036Z,31.25
2019-02-22T17:01:05.882Z,26.97
2019-02-22T17:03:34.994Z,27.65
2019-02-22T17:06:04.080Z,27.75
2019-02-22T17:08:32.863Z,25.02
2019-02-22T17:11:05.011Z,24.27
2019-02-22T17:13:33.784Z,24.95
2019-02-22T17:16:02.672Z,20.48
2019-02-22T17:18:31.446Z,21.02
2019-02-22T17:21:00.221Z,18.67
2019-02-22T17:23:29.029Z,16.93
2019-02-22T17:25:57.819Z,21.20
2019-02-22T17:28:29.298Z,17.87
2019-02-22T17:31:01.102Z,16.87
2019-02-22T17:33:29.866Z,21.00
2019-02-22T17:35:58.636Z,17.30
2019-02-22T17:38:27.400Z,18.73
2019-02-22T17:40:56.277Z,16.57
2019-02-22T17:43:25.146Z,17.15
2019-02-22T17:45:53.917Z,17.32
2019-02-22T17:48:22.691Z,15.32
2019-02-22T17:50:51.970Z,15.05
2019-02-22T17:53:20.747Z,15.58
2019-02-22T17:55:49.547Z,14.73
2019-02-22T17:58:24.481Z,16.82
2019-02-22T18:00:48.853Z,17.17
2019-02-22T18:03:17.645Z,16.25
2019-02-22T18:05:46.432Z,14.65
2019-02-22T18:08:15.498Z,15.72
2019-02-22T18:10:44.319Z,17.48
2019-02-22T18:13:15.892Z,16.77
2019-02-22T18:15:46.796Z,17.75
2019-02-22T18:18:16.824Z,16.95
2019-02-22T18:20:45.786Z,18.48
2019-02-22T18:23:14.593Z,20.57
2019-02-22T18:25:43.436Z,16.85
2019-02-22T18:28:12.205Z,17.25
2019-02-22T18:30:41.009Z,19.75
2019-02-22T18:33:10.955Z,17.17
2019-02-22T18:35:41.584Z,20.82
2019-02-22T18:38:10.362Z,18.10
2019-02-22T18:40:39.184Z,21.48
2019-02-22T18:43:11.359Z,16.75
2019-02-22T18:45:40.240Z,23.47
2019-02-22T18:48:09.050Z,16.87
2019-02-22T18:50:37.818Z,17.87
2019-02-22T18:53:06.958Z,20.10
2019-02-22T18:55:35.729Z,18.80
2019-02-22T18:58:04.620Z,19.75
2019-02-22T19:00:33.392Z,22.50
2019-02-22T19:03:02.171Z,19.80
2019-02-22T19:05:31.046Z,18.87
2019-02-22T19:07:59.824Z,20.72
2019-02-22T19:10:28.603Z,20.68
2019-02-22T19:12:57.420Z,20.02
2019-02-22T19:15:26.199Z,19.32
2019-02-22T19:17:54.992Z,20.70
2019-02-22T19:20:26.216Z,22.85
2019-02-22T19:22:54.984Z,20.52
2019-02-22T19:25:23.756Z,18.00
2019-02-22T19:27:52.566Z,22.58
2019-02-22T19:30:21.404Z,23.18
2019-02-22T19:32:50.174Z,21.12
2019-02-22T19:35:19.091Z,19.77
2019-02-22T19:37:47.855Z,23.00
2019-02-22T19:40:18.530Z,21.35
2019-02-22T19:42:47.338Z,21.23
2019-02-22T19:45:16.160Z,22.73
2019-02-22T19:47:45.035Z,22.70
2019-02-22T19:50:14.037Z,23.02
2019-02-22T19:52:42.952Z,21.00
2019-02-22T19:55:13.079Z,23.73
2019-02-22T19:57:41.873Z,25.65
2019-02-22T20:00:13.303Z,26.33
2019-02-22T20:02:42.088Z,25.00
2019-02-22T20:05:11.283Z,24.45
2019-02-22T20:07:40.356Z,25.45
2019-02-22T20:10:17.723Z,24.57
2019-02-22T20:12:41.535Z,25.10
2019-02-22T20:15:12.039Z,27.60
2019-02-22T20:17:40.955Z,29.95
2019-02-22T20:20:11.824Z,29.70
2019-02-22T20:22:40.679Z,29.90
2019-02-22T20:25:11.114Z,27.40
2019-02-22T20:27:39.911Z,29.45
2019-02-22T20:30:11.224Z,28.87
2019-02-22T20:32:40.413Z,32.42
2019-02-22T20:35:11.465Z,29.82
2019-02-22T20:37:40.288Z,33.92
2019-02-22T20:40:09.211Z,35.17
2019-02-22T20:42:38.355Z,35.03
2019-02-22T20:45:07.822Z,33.13
2019-02-22T20:47:36.625Z,32.93
2019-02-22T20:50:06.011Z,35.63
2019-02-22T20:52:34.821Z,33.95
2019-02-22T20:55:03.723Z,34.73
2019-02-22T20:57:34.770Z,31.68
2019-02-22T21:00:03.161Z,33.20
2019-02-22T21:02:31.964Z,32.55
2019-02-22T21:05:00.751Z,33.40
2019-02-22T21:07:29.802Z,34.20
2019-02-22T21:09:58.599Z,35.05
2019-02-22T21:12:27.384Z,33.65
2019-02-22T21:14:56.180Z,34.55
2019-02-22T21:17:24.986Z,33.28
2019-02-22T21:19:53.761Z,36.13
2019-02-22T21:22:23.994Z,32.67
2019-02-22T21:24:52.824Z,33.85
2019-02-22T21:27:21.609Z,33.65
2019-02-22T21:29:50.394Z,32.20
2019-02-22T21:32:19.191Z,34.27
2019-02-22T21:34:48.949Z,30.97
2019-02-22T21:37:17.886Z,31.70
2019-02-22T21:39:46.762Z,31.30
2019-02-22T21:42:20.180Z,30.88
2019-02-22T21:44:46.046Z,31.62
2019-02-22T21:47:14.845Z,30.62
2019-02-22T21:49:43.675Z,30.15
2019-02-22T21:52:12.476Z,30.48
2019-02-22T21:54:41.240Z,28.17
2019-02-22T21:57:10.056Z,28.50
2019-02-22T21:59:38.830Z,33.25
2019-02-22T22:02:07.589Z,32.08
2019-02-22T22:04:36.395Z,28.40
2019-02-22T22:07:05.260Z,23.75
2019-02-22T22:09:34.037Z,28.17
2019-02-22T22:12:02.806Z,29.87
2019-02-22T22:14:31.656Z,26.48
2019-02-22T22:17:00.417Z,31.87
2019-02-22T22:19:29.187Z,31.50
2019-02-22T22:21:57.990Z,30.62
2019-02-22T22:24:26.769Z,27.05
2019-02-22T22:26:55.586Z,27.07
2019-02-22T22:29:24.397Z,30.60
2019-02-22T22:31:53.171Z,29.48
2019-02-22T22:34:21.948Z,30.02
2019-02-22T22:36:50.770Z,28.30
2019-02-22T22:39:19.555Z,29.75
2019-02-22T22:41:48.367Z,31.80
2019-02-22T22:44:17.162Z,29.37
2019-02-22T22:46:45.949Z,25.52
2019-02-22T22:49:14.742Z,32.60
2019-02-22T22:51:43.543Z,29.25
2019-02-22T22:54:12.403Z,29.05
2019-02-22T22:56:41.182Z,29.72
2019-02-22T22:59:10.029Z,26.35
2019-02-22T23:01:39.446Z,30.30
2019-02-22T23:04:08.199Z,28.15
2019-02-22T23:06:37.049Z,27.87
2019-02-22T23:09:10.478Z,26.27
2019-02-22T23:11:39.323Z,27.93
2019-02-22T23:14:08.164Z,26.65
2019-02-22T23:16:36.962Z,29.82
2019-02-22T23:19:05.721Z,28.85
2019-02-22T23:21:34.501Z,28.65
2019-02-22T23:24:03.302Z,29.02
2019-02-22T23:26:32.149Z,30.17
2019-02-22T23:29:01.889Z,29.15
2019-02-22T23:31:30.788Z,30.68
2019-02-22T23:33:59.588Z,28.30
2019-02-22T23:36:28.385Z,28.55
2019-02-22T23:38:57.161Z,29.80
2019-02-22T23:41:25.977Z,29.05
2019-02-22T23:43:54.816Z,28.17
2019-02-22T23:46:23.587Z,28.20
2019-02-22T23:48:52.394Z,26.37
2019-02-22T23:51:21.258Z,27.25
2019-02-22T23:53:50.033Z,25.85
2019-02-22T23:56:18.858Z,27.00
2019-02-22T23:58:47.619Z,26.05
